x

Fowey Rock, Fl (fwyf1) Weather Station

9:00pm - Mon 15th Sep 2014 All times are EDT. -4 hours from GMT.

  • Wind
    9mph, 10mph gusts
  • Sea Temp 85°f
  • Air Temp 83°f
  • Sea Pressure 1020.1mb
  • Fowey Rock, Fl
  • Fowey Rock, Fl

More Historic Weather Station data

Upgrade to MSW Pro to gain access to the past 30 days of data for over 8000 Wavebouys and Weather Stations around the globe.

Join Pro

Comparision Forecast

View Surf forecast
   
Mon 09/15 9:00pm 9 10 mph 1020.1mb 85f 83f
8:00pm 10 11 mph 1019.3mb 85f 83f
7:00pm 9 10 mph 1019mb 85f 83f
6:00pm 8 9 mph 1019.1mb 85f 83f
5:00pm 10 11 mph 1019.2mb 85f 84f
4:00pm 10
mph
1019.4mb 85f 84f
3:00pm 7 8 mph 1019.9mb 85f 84f
2:00pm 11 13 mph 1020.4mb 85f 84f
1:00pm 9 10 mph 1020.8mb 85f 83f
12:00pm 14 15 mph 1021.1mb 85f 84f
11:00am 9 10 mph 1021.5mb 85f 83f
10:00am 11 13 mph 1021.3mb 85f 84f
9:00am 9 10 mph 1021.1mb 85f 84f
8:00am 9 10 mph 1020.7mb 85f 83f
7:00am 10
mph
1020.3mb 85f 83f
6:00am 10 11 mph 1019.9mb 85f 83f
5:00am 10 11 mph 1019.6mb 85f 83f
4:00am 14 15 mph 1019.5mb 85f 83f
3:00am 14 15 mph 1019.8mb 85f 83f
2:00am 14 15 mph 1020.2mb 85f 83f
1:00am 11 13 mph 1020.6mb 85f 84f
12:00am 14 15 mph 1020.6mb 85f 84f
Sun 09/14 11:00pm 11 13 mph 1020.8mb 85f 84f
10:00pm 11 13 mph 1020.5mb 85f 84f
9:00pm 13 14 mph 1020.1mb 85f 83f
8:00pm 10 13 mph 1019.9mb 85f 83f
7:00pm 10 11 mph 1019.5mb 85f 83f
6:00pm 10 13 mph 1019.4mb 85f 84f
5:00pm 8 9 mph 1019.6mb 85f 83f
4:00pm 10 11 mph 1019.6mb 85f 83f
3:00pm 11 13 mph 1019.8mb 85f 83f
2:00pm 11 13 mph 1020.3mb 85f 83f
1:00pm 11 13 mph 1020.5mb 85f 82f
12:00pm 13 14 mph 1020.7mb 85f 83f
11:00am 11 14 mph 1020.8mb 85f 83f
10:00am 10 11 mph 1020.3mb 85f 82f
9:00am 13
mph
1019.7mb 85f 82f
8:00am 8
mph
1019.1mb 85f 82f
7:00am 7 8 mph 1018.8mb 84f 80f
6:00am 11 13 mph 1018mb 85f 80f
5:00am 6
mph
1017.7mb 85f 80f
4:00am 8 9 mph 1018.2mb 85f 79f
3:00am 11 14 mph 1019mb 85f 79f
2:00am 15 17 mph 1019.3mb 85f 79f
1:00am 16 17 mph 1018.9mb 85f 79f
12:00am 22 23 mph 1019.1mb 85f 78f
Sat 09/13 11:00pm 13 14 mph 1018.8mb 85f 77f
10:00pm 15 16 mph 1018.9mb 85f 79f
9:00pm 18 20 mph 1018.1mb 85f 76f
8:00pm 28 31 mph 1016.9mb 85f 80f
7:00pm 14 16 mph 1016mb 85f 83f
6:00pm 13 14 mph 1016.1mb 85f 83f
5:00pm 14 15 mph 1015.7mb 85f 83f
4:00pm 13 15 mph 1015.7mb 85f 83f
3:00pm 14 16 mph 1016.4mb 85f 82f
2:00pm 15 16 mph 1017.1mb 85f 83f
1:00pm 15 16 mph 1017.3mb 85f 83f
12:00pm 13 14 mph 1017.4mb 85f 82f
11:00am 13 15 mph 1017.3mb 85f 82f
10:00am 14
mph
1017mb 85f 82f
9:00am 16 17 mph 1017.1mb 84f 82f
8:00am 14 17 mph 1016.6mb 84f 81f
7:00am 14 16 mph 1015.8mb 84f 81f
6:00am 13 14 mph 1015.4mb 84f 81f
5:00am 20 22 mph 1015mb 85f 81f
4:00am 28 30 mph 1015.4mb 85f 78f
3:00am 31 33 mph 1015.3mb 85f 80f
2:00am 14 16 mph 1015.9mb 85f 79f
1:00am 22 24 mph 1015.9mb 85f 82f
12:00am 18 20 mph 1015.9mb 85f 82f
Fri 09/12 11:00pm 18 20 mph 1016.5mb 85f 82f
10:00pm 17 20 mph 1016.1mb 85f 82f
9:00pm 14 15 mph 1015.2mb 85f 82f
8:00pm 7 9 mph 1015mb 85f 81f
7:00pm 6 7 mph 1015.1mb 85f 81f
6:00pm 7
mph
1014.9mb 85f 81f
5:00pm 7 8 mph 1014.4mb 85f 82f
4:00pm 5 6 mph 1014.5mb 85f 81f
3:00pm 9 10 mph 1015.3mb 85f 80f
2:00pm 14 16 mph 1015.5mb 85f 79f
1:00pm 24 26 mph 1016mb 85f 78f
12:00pm 9 11 mph 1016.5mb 85f 81f
11:00am 13 14 mph 1016.6mb 85f 80f
10:00am 11 13 mph 1016mb 85f 80f
9:00am 13 14 mph 1015.7mb 85f 80f
8:00am 13 15 mph 1015mb 84f 80f
7:00am 14
mph
1014.7mb 84f 80f
6:00am 14 15 mph 1014.5mb 84f 80f
5:00am 10
mph
1014.3mb 85f 80f
4:00am 9 11 mph 1014.6mb 85f 80f
3:00am 8 9 mph 1014.4mb 85f 80f